Time;durP1;ratioP1;P1;durP2;ratioP2;P2;SDS_P1;SDS_P2;PMS_P1;PMS_P2;Temp;Humidity;BMP_temperature;BMP_pressure;BME280_temperature;BME280_humidity;BME280_pressure;Samples;Min_cycle;Max_cycle;Signal;HPM_P1;HPM_P2
2021/05/27 00:01:57;;;;;;;0.15;0.00;;;;;;;14.57;67.75;100282.84;4903650;28;117109;-69
2021/05/27 00:04:23;;;;;;;0.22;0.00;;;;;;;14.54;67.73;100286.97;4905215;28;127889;-62
2021/05/27 00:06:49;;;;;;;0.57;0.10;;;;;;;14.49;67.56;100285.13;4922370;28;126699;-70
2021/05/27 00:09:15;;;;;;;0.25;0.10;;;;;;;14.50;67.62;100294.06;4922486;28;127540;-69
2021/05/27 00:11:41;;;;;;;0.20;0.00;;;;;;;14.48;68.02;100290.84;4921523;28;118254;-62
2021/05/27 00:14:07;;;;;;;0.52;0.00;;;;;;;14.45;68.10;100294.13;4904078;28;127996;-62
2021/05/27 00:16:33;;;;;;;0.50;0.10;;;;;;;14.39;67.99;100306.19;4904603;28;121335;-62
2021/05/27 00:18:59;;;;;;;0.20;0.10;;;;;;;14.34;68.04;100304.34;4904034;28;127424;-69
2021/05/27 00:21:25;;;;;;;0.20;0.00;;;;;;;14.36;68.03;100298.63;4920391;28;117058;-62
2021/05/27 00:23:51;;;;;;;0.20;0.10;;;;;;;14.34;68.07;100298.91;4884765;28;128052;-70
2021/05/27 00:26:17;;;;;;;0.30;0.00;;;;;;;14.30;68.34;100302.50;4869111;28;126502;-62
2021/05/27 00:28:44;;;;;;;0.40;0.10;;;;;;;14.29;68.04;100309.03;4885522;28;98147;-62
2021/05/27 00:31:10;;;;;;;1.38;0.00;;;;;;;14.22;68.50;100310.22;4885792;28;98453;-62
2021/05/27 00:33:36;;;;;;;0.45;0.10;;;;;;;14.25;68.24;100308.81;4915896;28;98511;-62
2021/05/27 00:36:03;;;;;;;0.20;0.10;;;;;;;14.21;68.39;100310.53;4921806;28;126869;-69
2021/05/27 00:38:29;;;;;;;0.38;0.10;;;;;;;14.22;67.96;100320.25;4922901;28;97769;-69
2021/05/27 00:40:55;;;;;;;0.30;0.10;;;;;;;14.20;68.26;100317.06;4923024;28;97923;-62
2021/05/27 00:43:21;;;;;;;0.30;0.10;;;;;;;14.16;68.24;100316.84;4921645;28;127866;-70
2021/05/27 00:45:47;;;;;;;0.70;0.00;;;;;;;14.13;68.30;100320.13;4921360;28;127870;-69
2021/05/27 00:48:57;;;;;;;0.60;0.10;;;;;;;14.10;68.20;100315.28;4922526;28;106934;-69
2021/05/27 00:50:59;;;;;;;0.35;0.10;;;;;;;14.10;68.43;100323.41;4923087;28;97904;-70
2021/05/27 00:53:27;;;;;;;0.40;0.10;;;;;;;14.08;68.40;100319.41;4902907;28;128275;-70
2021/05/27 00:55:54;;;;;;;0.70;0.20;;;;;;;14.09;68.18;100323.72;4922322;28;99191;-70
2021/05/27 00:58:20;;;;;;;1.58;0.10;;;;;;;14.07;68.46;100325.91;4887902;28;99927;-62
2021/05/27 01:00:46;;;;;;;0.30;0.10;;;;;;;14.05;68.30;100323.50;4894444;28;109711;-69
2021/05/27 01:03:12;;;;;;;0.40;0.10;;;;;;;14.02;68.29;100323.28;4904177;28;128227;-62
2021/05/27 01:05:39;;;;;;;0.30;0.10;;;;;;;13.99;68.54;100330.09;4921102;28;126110;-70
2021/05/27 01:08:05;;;;;;;1.33;0.10;;;;;;;13.98;68.64;100328.47;4921805;28;97901;-62
2021/05/27 01:10:31;;;;;;;1.00;0.10;;;;;;;13.96;68.56;100333.41;4920687;28;118431;-62
2021/05/27 01:12:57;;;;;;;0.30;0.10;;;;;;;13.93;68.48;100325.84;4921777;28;110959;-70
2021/05/27 01:15:38;;;;;;;0.43;0.10;;;;;;;13.92;68.40;100338.59;4920425;28;127631;-69
2021/05/27 01:18:11;;;;;;;1.23;0.10;;;;;;;13.91;68.38;100336.16;4887338;28;98033;-62
2021/05/27 01:20:38;;;;;;;0.25;0.10;;;;;;;13.92;68.62;100335.88;4889160;28;98091;-62
2021/05/27 01:23:04;;;;;;;0.50;0.10;;;;;;;13.88;68.74;100337.56;4887050;28;114613;-62
2021/05/27 01:25:30;;;;;;;0.57;0.10;;;;;;;13.87;68.69;100341.38;4921038;28;126342;-62
2021/05/27 01:27:57;;;;;;;0.50;0.10;;;;;;;13.86;68.52;100342.47;4920125;28;98082;-69
2021/05/27 01:30:23;;;;;;;0.60;0.10;;;;;;;13.82;68.77;100344.13;4912155;28;98018;-62
2021/05/27 01:32:50;;;;;;;0.60;0.15;;;;;;;13.81;68.68;100345.25;4920684;28;117445;-69
2021/05/27 01:35:21;;;;;;;1.15;0.15;;;;;;;13.83;68.42;100342.22;4922281;28;99232;-62
2021/05/27 01:37:47;;;;;;;0.40;0.10;;;;;;;13.78;68.80;100345.03;4904246;28;98232;-62
2021/05/27 01:40:15;;;;;;;0.75;0.20;;;;;;;13.77;68.45;100346.13;4869242;28;107237;-69
2021/05/27 01:42:41;;;;;;;0.50;0.10;;;;;;;13.75;68.49;100344.53;4887295;28;112621;-69
2021/05/27 01:45:07;;;;;;;1.00;0.15;;;;;;;13.73;68.66;100348.59;4920771;28;127510;-62
2021/05/27 01:47:33;;;;;;;0.75;0.10;;;;;;;13.71;68.46;100351.59;4894581;28;108180;-62
2021/05/27 01:49:59;;;;;;;0.30;0.17;;;;;;;13.72;68.41;100349.72;4898764;28;118887;-62
2021/05/27 01:52:26;;;;;;;0.50;0.20;;;;;;;13.72;68.73;100352.41;4902586;28;127986;-69
2021/05/27 01:54:52;;;;;;;0.57;0.20;;;;;;;13.68;68.55;100354.91;4921155;28;105469;-62
2021/05/27 01:57:18;;;;;;;0.50;0.20;;;;;;;13.69;68.44;100359.22;4884457;28;127652;-70
2021/05/27 01:59:44;;;;;;;1.75;0.20;;;;;;;13.65;68.84;100357.38;4904210;28;98016;-62
2021/05/27 02:02:10;;;;;;;0.63;0.20;;;;;;;13.65;68.68;100360.09;4911966;28;113245;-62
2021/05/27 02:04:36;;;;;;;0.40;0.20;;;;;;;13.64;68.74;100358.47;4902678;28;98807;-70
2021/05/27 02:07:10;;;;;;;0.30;0.17;;;;;;;13.63;68.27;100363.06;4900587;28;127917;-70
2021/05/27 02:09:36;;;;;;;0.60;0.20;;;;;;;13.64;68.48;100366.59;4884732;28;97951;-70
2021/05/27 02:12:03;;;;;;;0.60;0.20;;;;;;;13.57;68.76;100368.84;4901249;28;122257;-62
2021/05/27 02:14:29;;;;;;;0.47;0.20;;;;;;;13.58;68.68;100370.47;4901008;28;116844;-69
2021/05/27 02:16:55;;;;;;;0.88;0.20;;;;;;;13.58;68.75;100367.75;4883826;28;97826;-62
2021/05/27 02:19:21;;;;;;;0.98;0.20;;;;;;;13.59;68.81;100377.47;4901775;28;97983;-69
2021/05/27 02:21:47;;;;;;;1.05;0.28;;;;;;;13.58;68.74;100384.00;4902286;28;98314;-69
2021/05/27 02:24:13;;;;;;;1.08;0.20;;;;;;;13.56;68.56;100378.06;4902684;28;112963;-69
2021/05/27 02:26:39;;;;;;;1.73;0.22;;;;;;;13.56;68.77;100375.34;4882225;28;126572;-69
2021/05/27 02:29:05;;;;;;;0.70;0.20;;;;;;;13.50;68.75;100374.63;4904204;28;117672;-69
2021/05/27 02:31:31;;;;;;;0.85;0.20;;;;;;;13.52;68.69;100369.72;4902032;28;98962;-69
2021/05/27 02:33:58;;;;;;;0.68;0.20;;;;;;;13.51;68.64;100368.91;4902066;28;98344;-69
2021/05/27 02:36:24;;;;;;;0.75;0.30;;;;;;;13.49;68.66;100373.81;4901602;28;97786;-61
2021/05/27 02:38:50;;;;;;;0.65;0.30;;;;;;;13.46;68.88;100379.78;4901887;28;97904;-61
2021/05/27 02:41:16;;;;;;;0.50;0.20;;;;;;;13.47;68.67;100381.41;4902170;28;107782;-61
2021/05/27 02:43:42;;;;;;;1.17;0.30;;;;;;;13.47;68.47;100383.31;4900958;28;113279;-61
2021/05/27 02:46:08;;;;;;;0.47;0.20;;;;;;;13.42;68.77;100375.25;4882543;28;128150;-69
2021/05/27 02:48:34;;;;;;;0.60;0.30;;;;;;;13.41;68.67;100379.06;4902330;28;112654;-69
2021/05/27 02:51:00;;;;;;;1.08;0.30;;;;;;;13.37;68.69;100375.31;4904753;28;98358;-68
2021/05/27 02:53:26;;;;;;;0.60;0.30;;;;;;;13.37;68.79;100370.69;4903086;28;111318;-62
2021/05/27 02:55:53;;;;;;;0.60;0.32;;;;;;;13.37;68.77;100372.59;4885743;28;126176;-61
2021/05/27 02:58:19;;;;;;;1.15;0.30;;;;;;;13.35;68.92;100372.06;4887879;28;97994;-68
2021/05/27 03:00:45;;;;;;;1.38;0.40;;;;;;;13.34;69.13;100378.59;4925113;28;98682;-68
2021/05/27 03:03:12;;;;;;;0.88;0.35;;;;;;;13.31;68.79;100377.25;4920669;28;98302;-68
2021/05/27 03:05:38;;;;;;;0.70;0.38;;;;;;;13.33;68.61;100375.09;4919583;28;114657;-61
2021/05/27 03:08:05;;;;;;;0.70;0.30;;;;;;;13.37;69.06;100378.03;4901621;28;116443;-68
2021/05/27 03:10:31;;;;;;;0.85;0.40;;;;;;;13.38;68.58;100379.63;4920118;28;123485;-62
2021/05/27 03:12:57;;;;;;;0.80;0.40;;;;;;;13.41;68.86;100381.75;4895057;28;99041;-61
2021/05/27 03:15:23;;;;;;;1.60;0.43;;;;;;;13.44;68.65;100378.47;4867182;28;105093;-68
2021/05/27 03:17:49;;;;;;;1.77;0.50;;;;;;;13.44;68.67;100383.88;4883112;28;115660;-68
2021/05/27 03:20:15;;;;;;;0.70;0.32;;;;;;;13.47;69.01;100386.00;4916349;28;125456;-68
2021/05/27 03:22:41;;;;;;;1.23;0.50;;;;;;;13.47;68.55;100386.00;4901772;28;127730;-62
2021/05/27 03:25:08;;;;;;;1.00;0.50;;;;;;;13.48;68.63;100382.22;4920349;28;112455;-68
2021/05/27 03:27:34;;;;;;;1.02;0.60;;;;;;;13.49;68.98;100381.13;4902223;28;98199;-68
2021/05/27 03:30:01;;;;;;;0.88;0.40;;;;;;;13.49;68.75;100387.34;4918434;28;98969;-61
2021/05/27 03:32:27;;;;;;;1.63;0.40;;;;;;;13.49;68.76;100383.84;4920894;28;99198;-68
2021/05/27 03:34:53;;;;;;;0.90;0.50;;;;;;;13.50;68.69;100380.84;4919912;28;98459;-68
2021/05/27 03:37:19;;;;;;;2.83;0.50;;;;;;;13.50;68.93;100388.94;4902469;28;102105;-68
2021/05/27 03:42:31;;;;;;;2.03;0.70;;;;;;;13.50;68.78;100397.06;4919507;28;99029;-68
2021/05/27 03:44:57;;;;;;;1.20;0.60;;;;;;;13.51;68.92;100392.47;4919931;28;98064;-61
2021/05/27 03:47:23;;;;;;;1.00;0.63;;;;;;;13.54;68.71;100382.97;4908890;28;104678;-62
2021/05/27 03:49:49;;;;;;;1.38;0.80;;;;;;;13.54;68.60;100391.91;4900373;28;127952;-69
2021/05/27 03:52:15;;;;;;;1.27;0.90;;;;;;;13.59;68.74;100385.59;4900236;28;126986;-62
2021/05/27 03:54:43;;;;;;;1.15;0.80;;;;;;;13.57;68.73;100385.91;4919651;28;98604;-62
2021/05/27 03:57:09;;;;;;;1.30;0.65;;;;;;;13.61;68.51;100383.44;4902930;28;97993;-68
2021/05/27 04:02:20;;;;;;;1.20;0.80;;;;;;;13.67;68.41;100399.31;4918686;28;97942;-68
2021/05/27 04:07:31;;;;;;;1.58;0.75;;;;;;;13.75;68.29;100406.81;4922603;28;99429;-69
2021/05/27 04:09:57;;;;;;;1.10;0.95;;;;;;;13.80;68.51;100403.25;4923086;28;98694;-61
2021/05/27 04:15:28;;;;;;;1.35;0.77;;;;;;;13.91;68.06;100395.78;4910043;28;97929;-61
2021/05/27 04:18:00;;;;;;;1.52;0.82;;;;;;;13.95;68.18;100411.19;4903632;28;97845;-62
2021/05/27 04:20:34;;;;;;;1.40;1.00;;;;;;;14.06;67.66;100408.31;4904238;28;98653;-61
2021/05/27 04:23:01;;;;;;;1.65;0.90;;;;;;;14.09;68.00;100402.31;4903318;28;98921;-61
2021/05/27 04:25:27;;;;;;;1.35;0.90;;;;;;;14.16;67.41;100414.41;4885497;28;98172;-68
2021/05/27 04:27:55;;;;;;;1.40;0.90;;;;;;;14.20;67.49;100417.34;4885670;28;103964;-62
2021/05/27 04:30:22;;;;;;;1.40;0.90;;;;;;;14.27;67.37;100417.00;4923217;28;98442;-62
2021/05/27 04:35:18;;;;;;;2.13;1.17;;;;;;;14.43;67.40;100419.19;4917632;28;98222;-61
2021/05/27 04:37:45;;;;;;;1.75;0.90;;;;;;;14.51;66.99;100425.06;4921856;28;119137;-61
2021/05/27 04:40:14;;;;;;;1.40;0.88;;;;;;;14.51;66.93;100428.59;4921087;28;128280;-62
2021/05/27 04:42:41;;;;;;;1.42;1.05;;;;;;;14.61;66.78;100422.19;4919713;28;99185;-62
2021/05/27 04:45:07;;;;;;;2.80;1.10;;;;;;;14.70;66.96;100425.88;4919927;28;98174;-61
2021/05/27 04:47:33;;;;;;;2.55;1.17;;;;;;;14.75;66.99;100436.63;4915138;28;98554;-61
2021/05/27 04:49:59;;;;;;;2.95;1.10;;;;;;;14.70;67.23;100426.66;4913070;28;99663;-62
2021/05/27 04:52:25;;;;;;;1.60;0.90;;;;;;;14.69;67.36;100430.47;4917712;28;125292;-61
2021/05/27 04:54:51;;;;;;;1.60;1.20;;;;;;;14.67;67.11;100435.38;4916113;28;122802;-61
2021/05/27 04:57:18;;;;;;;1.60;0.90;;;;;;;14.70;67.27;100434.00;4919491;28;117539;-62
2021/05/27 04:59:44;;;;;;;1.75;1.00;;;;;;;14.77;66.94;100428.19;4911367;28;98632;-62
2021/05/27 05:02:10;;;;;;;1.23;0.90;;;;;;;14.83;67.44;100432.44;4900896;28;115859;-68
2021/05/27 05:04:36;;;;;;;2.33;1.00;;;;;;;14.86;66.88;100440.00;4893779;28;127324;-62
2021/05/27 05:07:02;;;;;;;1.92;1.25;;;;;;;14.89;66.96;100440.19;4901052;28;118873;-62
2021/05/27 05:09:28;;;;;;;2.03;1.27;;;;;;;14.89;66.78;100444.81;4899676;28;128144;-68
2021/05/27 05:11:54;;;;;;;2.10;1.25;;;;;;;14.90;67.17;100447.25;4915387;28;129580;-61
2021/05/27 05:14:20;;;;;;;1.60;1.00;;;;;;;14.88;67.06;100441.28;4910869;28;128448;-68
2021/05/27 05:16:46;;;;;;;2.47;1.10;;;;;;;14.91;66.88;100450.75;4918413;28;99362;-68
2021/05/27 05:19:12;;;;;;;1.65;1.00;;;;;;;14.92;67.28;100449.66;4917425;28;98983;-61
2021/05/27 05:21:38;;;;;;;2.08;1.00;;;;;;;14.89;67.43;100447.50;4918964;28;98579;-62
2021/05/27 05:24:05;;;;;;;2.38;1.10;;;;;;;14.93;67.18;100446.66;4899283;28;127379;-68
2021/05/27 05:26:31;;;;;;;2.17;1.02;;;;;;;14.93;67.22;100448.53;4884140;28;106678;-68
2021/05/27 05:28:57;;;;;;;2.13;1.10;;;;;;;14.94;67.33;100453.69;4896118;28;127568;-68
2021/05/27 05:31:23;;;;;;;2.08;1.20;;;;;;;14.95;67.28;100449.06;4901109;28;98589;-62
2021/05/27 05:33:54;;;;;;;2.15;0.93;;;;;;;15.02;66.97;100462.25;4911335;28;127697;-68
2021/05/27 05:36:21;;;;;;;1.23;1.02;;;;;;;15.11;67.51;100457.75;4915401;28;98088;-68
2021/05/27 05:38:47;;;;;;;2.10;1.25;;;;;;;15.19;67.04;100457.06;4917736;28;118291;-68
2021/05/27 05:41:13;;;;;;;1.65;0.95;;;;;;;15.30;67.02;100463.94;4911638;28;127721;-67
2021/05/27 05:43:39;;;;;;;3.03;1.10;;;;;;;15.46;66.54;100456.31;4910978;28;98179;-68
2021/05/27 05:46:06;;;;;;;1.40;0.90;;;;;;;15.64;65.71;100455.44;4892205;28;117016;-68
2021/05/27 05:48:32;;;;;;;1.92;1.00;;;;;;;15.76;65.67;100454.97;4915584;28;98257;-60
2021/05/27 05:51:00;;;;;;;1.40;1.10;;;;;;;15.88;65.34;100454.47;4916830;28;98289;-68
2021/05/27 05:53:26;;;;;;;2.55;1.08;;;;;;;15.90;65.31;100458.47;4918769;28;97906;-62
2021/05/27 05:55:53;;;;;;;1.90;1.08;;;;;;;15.88;65.74;100457.97;4918449;28;98196;-61
2021/05/27 05:58:19;;;;;;;1.50;0.95;;;;;;;15.88;66.05;100462.63;4899980;28;98354;-68
2021/05/27 06:00:46;;;;;;;1.60;1.00;;;;;;;15.89;65.62;100458.78;4917310;28;99186;-68
2021/05/27 06:03:12;;;;;;;1.67;1.10;;;;;;;15.88;65.70;100460.69;4917497;28;99085;-68
2021/05/27 06:05:38;;;;;;;1.40;1.00;;;;;;;15.90;66.17;100465.81;4899795;28;98127;-62
2021/05/27 06:08:05;;;;;;;1.75;1.05;;;;;;;15.97;65.66;100462.72;4916756;28;128413;-62
2021/05/27 06:10:31;;;;;;;1.63;1.10;;;;;;;16.01;65.64;100469.94;4918226;28;99296;-61
2021/05/27 06:12:57;;;;;;;1.80;1.20;;;;;;;15.99;65.97;100463.19;4913399;28;127617;-68
2021/05/27 06:15:25;;;;;;;3.60;1.20;;;;;;;15.93;66.31;100462.50;4918166;28;97912;-68
2021/05/27 06:17:51;;;;;;;1.88;1.00;;;;;;;16.03;65.93;100465.00;4914336;28;109597;-62
2021/05/27 06:20:20;;;;;;;1.85;1.10;;;;;;;16.19;65.44;100471.75;4917700;28;99155;-62
2021/05/27 06:22:46;;;;;;;1.95;1.23;;;;;;;16.42;64.92;100478.03;4916999;28;98758;-62
2021/05/27 06:25:12;;;;;;;1.52;1.00;;;;;;;16.67;64.46;100460.34;4917436;28;98314;-68
2021/05/27 06:27:39;;;;;;;1.60;1.10;;;;;;;16.99;63.60;100465.88;4916581;28;98245;-62
2021/05/27 06:30:06;;;;;;;1.77;0.98;;;;;;;17.15;63.00;100462.47;4918314;28;98565;-68
2021/05/27 06:32:35;;;;;;;1.27;0.98;;;;;;;17.33;62.19;100457.94;4917492;28;98168;-68
2021/05/27 06:35:02;;;;;;;1.60;1.10;;;;;;;18.41;59.63;100455.72;4884678;28;98221;-62
2021/05/27 06:37:28;;;;;;;1.10;1.00;;;;;;;19.72;55.26;100459.84;4916388;28;109377;-62
2021/05/27 06:39:54;;;;;;;1.27;0.60;;;;;;;21.49;53.94;100463.31;4897304;28;100954;-69
2021/05/27 06:42:20;;;;;;;0.90;0.40;;;;;;;21.75;54.24;100461.06;4894531;28;100512;-62
2021/05/27 06:44:47;;;;;;;0.90;0.52;;;;;;;23.34;51.30;100461.78;4899541;28;98260;-63
2021/05/27 06:47:13;;;;;;;0.85;0.40;;;;;;;24.62;48.72;100472.28;4866738;28;115150;-63
2021/05/27 06:49:39;;;;;;;0.82;0.30;;;;;;;24.27;50.68;100481.34;4916912;28;126520;-69
2021/05/27 06:52:05;;;;;;;1.48;0.40;;;;;;;23.67;52.52;100487.03;4917107;28;100925;-69
2021/05/27 06:54:31;;;;;;;0.60;0.30;;;;;;;24.17;51.58;100481.88;4915744;28;98116;-69
2021/05/27 06:56:58;;;;;;;1.73;0.40;;;;;;;24.22;51.85;100476.13;4913162;28;98192;-62
2021/05/27 06:59:24;;;;;;;1.13;0.40;;;;;;;25.65;48.94;100471.47;4917237;28;99110;-62
2021/05/27 07:01:50;;;;;;;1.20;0.30;;;;;;;26.71;46.87;100476.19;4915314;28;115402;-63
2021/05/27 07:04:16;;;;;;;1.52;0.35;;;;;;;27.19;46.60;100476.34;4913715;28;116871;-63
2021/05/27 07:06:42;;;;;;;0.63;0.22;;;;;;;27.26;46.65;100475.63;4898500;28;128246;-69
2021/05/27 07:09:08;;;;;;;0.93;0.30;;;;;;;28.91;43.74;100470.00;4880145;28;99130;-63
2021/05/27 07:11:34;;;;;;;0.65;0.20;;;;;;;28.61;44.82;100467.53;4912216;28;98705;-70
2021/05/27 07:14:00;;;;;;;0.52;0.20;;;;;;;27.47;47.15;100477.78;4898968;28;110713;-62
2021/05/27 07:16:27;;;;;;;0.75;0.28;;;;;;;26.20;49.76;100473.91;4896870;28;127684;-63
2021/05/27 07:18:54;;;;;;;0.65;0.30;;;;;;;25.12;51.74;100467.78;4909967;28;98799;-62
2021/05/27 07:21:20;;;;;;;1.30;0.30;;;;;;;24.22;52.96;100473.38;4879760;28;98395;-69
2021/05/27 07:23:46;;;;;;;1.50;0.55;;;;;;;23.45;52.68;100457.34;4880123;28;99633;-62
2021/05/27 07:26:12;;;;;;;1.52;0.60;;;;;;;23.05;54.27;100462.97;4906161;28;98710;-62
2021/05/27 07:28:38;;;;;;;1.40;0.50;;;;;;;22.72;53.33;100459.31;4914578;28;103323;-62
2021/05/27 07:31:06;;;;;;;1.60;0.55;;;;;;;22.37;55.38;100450.84;4889690;28;127642;-62
2021/05/27 07:33:32;;;;;;;2.17;0.52;;;;;;;22.11;55.90;100461.38;4910155;28;98712;-62
2021/05/27 07:35:58;;;;;;;1.70;0.60;;;;;;;22.02;56.18;100459.56;4895806;28;98368;-69
2021/05/27 07:38:24;;;;;;;1.58;0.60;;;;;;;22.04;55.94;100451.75;4884276;28;98523;-62
2021/05/27 07:40:50;;;;;;;1.20;0.40;;;;;;;22.19;55.74;100458.53;4893594;28;115356;-62
2021/05/27 07:43:16;;;;;;;2.85;0.60;;;;;;;22.18;55.57;100450.66;4919829;28;117964;-62
2021/05/27 07:45:43;;;;;;;1.20;0.40;;;;;;;22.14;55.65;100447.78;4918716;28;128029;-69
2021/05/27 07:48:09;;;;;;;1.83;0.50;;;;;;;22.09;56.04;100448.00;4916822;28;111450;-69
2021/05/27 07:50:35;;;;;;;1.30;0.43;;;;;;;22.13;56.25;100448.94;4880125;28;112721;-68
2021/05/27 07:53:01;;;;;;;1.13;0.60;;;;;;;22.40;55.22;100444.66;4910952;28;97864;-62
2021/05/27 07:55:27;;;;;;;1.95;0.45;;;;;;;22.54;55.42;100447.00;4911213;28;97893;-62
2021/05/27 07:57:54;;;;;;;1.17;0.60;;;;;;;22.53;55.59;100443.47;4913770;28;97784;-69
2021/05/27 08:00:20;;;;;;;1.10;0.50;;;;;;;22.49;56.05;100444.53;4897620;28;98777;-63
2021/05/27 08:02:49;;;;;;;1.20;0.60;;;;;;;22.73;55.63;100444.44;4912061;28;97898;-68
2021/05/27 08:05:15;;;;;;;1.25;0.40;;;;;;;23.76;53.11;100440.06;4913789;28;98898;-62
2021/05/27 08:07:43;;;;;;;0.95;0.40;;;;;;;24.39;52.40;100458.41;4897784;28;98869;-62
2021/05/27 08:10:10;;;;;;;1.08;0.40;;;;;;;24.27;53.33;100459.31;4891347;28;127096;-68
2021/05/27 08:12:36;;;;;;;1.20;0.40;;;;;;;24.15;53.36;100451.97;4896206;28;98253;-69
2021/05/27 08:15:05;;;;;;;1.52;0.40;;;;;;;23.72;54.91;100475.75;4911274;28;98290;-69
2021/05/27 08:17:31;;;;;;;1.40;0.40;;;;;;;23.43;55.27;100465.97;4899501;28;98373;-68
2021/05/27 08:19:57;;;;;;;0.82;0.32;;;;;;;23.47;55.09;100466.06;4893252;28;98458;-62
2021/05/27 08:22:26;;;;;;;1.20;0.43;;;;;;;23.17;54.88;100471.94;4912293;28;97923;-62
2021/05/27 08:24:55;;;;;;;0.73;0.40;;;;;;;23.37;54.94;100477.56;4912790;28;98763;-68
2021/05/27 08:27:21;;;;;;;0.80;0.30;;;;;;;23.73;54.28;100468.28;4915523;28;99084;-69
2021/05/27 08:29:47;;;;;;;0.90;0.40;;;;;;;23.90;53.92;100467.94;4914766;28;125597;-68
2021/05/27 08:35:29;;;;;;;0.93;0.30;;;;;;;24.09;53.52;100461.69;4915178;28;99391;-69
2021/05/27 08:37:55;;;;;;;1.52;0.50;;;;;;;23.76;54.52;100470.31;4868759;28;98498;-69
2021/05/27 08:40:21;;;;;;;1.70;0.40;;;;;;;26.10;48.58;100464.31;4916466;28;127798;-69
2021/05/27 08:42:47;;;;;;;1.02;0.30;;;;;;;26.95;47.63;100460.28;4918522;28;117746;-69
2021/05/27 08:45:15;;;;;;;1.10;0.30;;;;;;;26.12;49.91;100467.50;4859522;28;127008;-62
2021/05/27 08:47:41;;;;;;;0.68;0.28;;;;;;;26.20;49.83;100460.91;4901204;28;98520;-62
2021/05/27 08:50:08;;;;;;;0.60;0.30;;;;;;;26.16;50.05;100473.84;4899941;28;113463;-69
2021/05/27 08:52:34;;;;;;;1.77;0.50;;;;;;;26.43;49.60;100460.81;4882942;28;99138;-69
2021/05/27 08:55:01;;;;;;;0.52;0.25;;;;;;;26.34;49.83;100460.31;4917537;28;122642;-69
2021/05/27 08:57:27;;;;;;;2.05;0.40;;;;;;;25.72;51.74;100465.28;4918853;28;98274;-62
2021/05/27 08:59:53;;;;;;;0.80;0.30;;;;;;;25.20;52.17;100466.75;4918088;28;127643;-62
2021/05/27 09:02:19;;;;;;;0.50;0.30;;;;;;;24.45;53.80;100468.00;4918932;28;97792;-69
2021/05/27 09:04:45;;;;;;;0.60;0.30;;;;;;;23.86;54.51;100471.75;4884132;28;98877;-69
2021/05/27 09:07:12;;;;;;;0.95;0.32;;;;;;;23.27;54.63;100474.19;4916056;28;98420;-69
2021/05/27 09:09:54;;;;;;;0.73;0.30;;;;;;;23.46;54.45;100468.00;4894267;28;98070;-62
2021/05/27 09:12:32;;;;;;;1.00;0.30;;;;;;;23.31;54.53;100479.00;4891744;28;98546;-62
2021/05/27 09:14:59;;;;;;;0.98;0.30;;;;;;;22.66;55.97;100477.19;4918105;28;99430;-62
2021/05/27 09:17:26;;;;;;;1.45;0.40;;;;;;;22.05;57.13;100477.28;4915453;28;99076;-65
2021/05/27 09:20:17;;;;;;;1.17;0.47;;;;;;;21.53;57.97;100472.44;4899746;28;115573;-62
2021/05/27 09:22:43;;;;;;;1.50;0.40;;;;;;;21.11;58.17;100483.53;4912210;28;98472;-68
2021/05/27 09:25:24;;;;;;;1.30;0.50;;;;;;;20.77;58.95;100488.19;4917119;28;98912;-61
2021/05/27 09:27:50;;;;;;;1.10;0.40;;;;;;;20.48;59.00;100497.25;4916384;28;98832;-62
2021/05/27 09:30:17;;;;;;;0.90;0.50;;;;;;;20.20;59.66;100491.47;4916025;28;97853;-62
2021/05/27 09:32:47;;;;;;;1.40;0.45;;;;;;;19.93;60.02;100491.94;4917868;28;106624;-68
2021/05/27 09:35:13;;;;;;;1.10;0.40;;;;;;;19.77;60.38;100495.25;4913166;28;99018;-68
2021/05/27 09:37:54;;;;;;;1.10;0.55;;;;;;;19.68;60.45;100497.19;4912881;28;99059;-68
2021/05/27 09:40:43;;;;;;;0.80;0.40;;;;;;;19.85;59.42;100491.66;4875537;28;98170;-61
2021/05/27 09:43:12;;;;;;;0.80;0.43;;;;;;;20.45;58.53;100497.09;4915434;28;99208;-67
2021/05/27 09:45:40;;;;;;;1.00;0.50;;;;;;;21.13;57.37;100492.19;4876278;28;98760;-68
2021/05/27 09:48:25;;;;;;;2.25;0.40;;;;;;;23.41;52.45;100487.50;4917272;28;98415;-69
2021/05/27 09:50:56;;;;;;;0.90;0.40;;;;;;;27.20;44.65;100489.03;4914193;28;98256;-62
2021/05/27 09:53:25;;;;;;;1.58;0.30;;;;;;;28.61;42.16;100498.00;4918229;28;98103;-69
2021/05/27 09:55:53;;;;;;;0.80;0.30;;;;;;;30.20;39.68;100495.13;4909754;28;98463;-70
2021/05/27 09:58:19;;;;;;;0.50;0.30;;;;;;;31.37;37.82;100490.28;4916815;28;99049;-63
2021/05/27 10:00:47;;;;;;;0.80;0.30;;;;;;;32.31;36.47;100489.06;4913185;28;112437;-63
2021/05/27 10:03:33;;;;;;;0.47;0.30;;;;;;;34.60;33.53;100486.31;4917741;28;97953;-63
2021/05/27 10:06:10;;;;;;;0.70;0.30;;;;;;;34.25;33.87;100485.00;4916114;28;98320;-63
2021/05/27 10:08:50;;;;;;;0.68;0.20;;;;;;;36.00;31.17;100477.47;4912683;28;98900;-63
2021/05/27 10:11:17;;;;;;;0.30;0.20;;;;;;;33.43;35.52;100478.00;4907365;28;98263;-63
2021/05/27 10:13:44;;;;;;;0.55;0.20;;;;;;;31.38;39.30;100461.25;4912317;28;98149;-69
2021/05/27 10:16:12;;;;;;;0.60;0.20;;;;;;;29.89;42.07;100464.19;4915969;28;97748;-62
2021/05/27 10:18:39;;;;;;;0.47;0.20;;;;;;;31.02;39.80;100458.69;4913187;28;98424;-69
2021/05/27 10:21:05;;;;;;;0.38;0.10;;;;;;;30.32;40.41;100461.34;4899527;28;98468;-69
2021/05/27 10:23:31;;;;;;;0.88;0.30;;;;;;;29.03;43.01;100458.56;4916565;28;117471;-62
2021/05/27 10:25:57;;;;;;;0.68;0.30;;;;;;;28.00;45.28;100453.34;4917030;28;98295;-69
2021/05/27 10:28:24;;;;;;;0.47;0.20;;;;;;;26.85;46.53;100487.44;4881087;28;116797;-69
2021/05/27 10:30:50;;;;;;;1.50;0.30;;;;;;;25.94;48.61;100488.53;4897560;28;99321;-69
2021/05/27 10:33:19;;;;;;;0.88;0.30;;;;;;;25.05;49.93;100495.19;4889774;28;112764;-69
2021/05/27 10:35:55;;;;;;;1.13;0.40;;;;;;;24.05;50.70;100510.34;4893951;28;98354;-68
2021/05/27 10:41:06;;;;;;;0.40;0.20;;;;;;;22.58;54.96;100522.06;4920160;28;98034;-61
2021/05/27 10:43:33;;;;;;;0.55;0.20;;;;;;;22.17;55.40;100537.69;4916387;28;97957;-68
2021/05/27 10:46:11;;;;;;;1.30;0.30;;;;;;;21.76;56.84;100536.69;4914452;28;99094;-61
2021/05/27 10:48:43;;;;;;;0.68;0.20;;;;;;;21.51;57.00;100535.88;4915909;28;99241;-68
2021/05/27 10:51:22;;;;;;;1.35;0.20;;;;;;;21.36;57.33;100546.69;4908405;28;98650;-61
2021/05/27 10:53:50;;;;;;;0.30;0.10;;;;;;;21.18;57.47;100541.34;4898046;28;98704;-68
2021/05/27 10:56:19;;;;;;;0.68;0.20;;;;;;;21.00;57.36;100557.13;4910090;28;99303;-61
2021/05/27 11:01:30;;;;;;;0.52;0.17;;;;;;;20.64;58.87;100567.88;4916229;28;98520;-68
2021/05/27 11:04:01;;;;;;;0.95;0.10;;;;;;;20.65;58.89;100572.22;4917485;28;97960;-68
2021/05/27 11:06:37;;;;;;;0.40;0.10;;;;;;;20.49;58.73;100575.53;4917675;28;101377;-62
2021/05/27 11:11:45;;;;;;;0.40;0.10;;;;;;;20.22;59.15;100570.50;4914783;28;98192;-61
2021/05/27 11:14:39;;;;;;;0.50;0.10;;;;;;;20.12;59.54;100568.91;4921204;28;97950;-67
2021/05/27 11:17:06;;;;;;;0.30;0.10;;;;;;;20.05;60.38;100580.38;4918845;28;99844;-68
2021/05/27 11:22:30;;;;;;;1.02;0.10;;;;;;;20.05;59.69;100572.19;4918645;28;97919;-68
2021/05/27 11:25:11;;;;;;;0.73;0.10;;;;;;;20.20;59.07;100576.31;4913513;28;98043;-61
2021/05/27 11:27:54;;;;;;;0.20;0.10;;;;;;;20.22;59.08;100573.22;4916000;28;99174;-68
2021/05/27 11:30:39;;;;;;;0.60;0.05;;;;;;;20.44;58.22;100572.16;4921167;28;98197;-61
2021/05/27 11:33:30;;;;;;;0.30;0.00;;;;;;;20.68;58.47;100575.09;4914136;28;98514;-68
2021/05/27 11:36:05;;;;;;;0.10;0.00;;;;;;;20.79;57.86;100570.81;4920161;28;98554;-61
2021/05/27 11:38:38;;;;;;;0.30;0.00;;;;;;;20.75;58.21;100575.38;4914384;28;99284;-68
2021/05/27 11:41:09;;;;;;;0.43;0.10;;;;;;;20.53;59.11;100572.94;4919465;28;98528;-62
2021/05/27 11:43:37;;;;;;;0.03;0.00;;;;;;;20.56;58.53;100573.06;4919601;28;98230;-61
2021/05/27 11:46:12;;;;;;;0.63;0.00;;;;;;;20.46;58.55;100570.69;4918974;28;98059;-68
2021/05/27 11:48:59;;;;;;;0.10;0.00;;;;;;;20.48;59.49;100575.84;4919969;28;98845;-68
2021/05/27 11:51:38;;;;;;;0.35;0.10;;;;;;;20.31;58.84;100568.50;4914085;28;99667;-68
2021/05/27 11:54:10;;;;;;;0.22;0.00;;;;;;;20.34;59.54;100573.31;4885094;28;97982;-61